Watauga Observed Data For Previous 48 Hours

Caption
Day and Hour Reservoir Elevation (behind dam)* Tailwater Elevation (below dam)* Average Hourly Discharge*
11/17/2017 2 AM EST 1,953.43 1,647.55 0
11/17/2017 3 AM EST 1,953.43 1,647.80 1
11/17/2017 4 AM EST 1,953.43 1,650.22 1,227
11/17/2017 5 AM EST 1,953.43 1,650.21 1,232
11/17/2017 6 AM EST 1,953.43 1,650.21 1,236
11/17/2017 7 AM EST 1,953.41 1,650.21 1,231
11/17/2017 8 AM EST 1,953.41 1,650.21 1,231
11/17/2017 9 AM EST 1,953.40 1,650.22 1,230
11/17/2017 10 AM EST 1,953.38 1,650.20 1,233
11/17/2017 11 AM EST 1,953.37 1,650.21 1,232
11/17/2017 12 PM EST 1,953.35 1,650.19 1,232
11/17/2017 1 PM EST 1,953.35 1,650.18 1,232
11/17/2017 2 PM EST 1,953.34 1,650.21 1,231
11/17/2017 3 PM EST 1,953.33 1,647.73 48
11/17/2017 4 PM EST 1,953.33 1,647.55 0
11/17/2017 5 PM EST 1,953.33 1,647.73 0
11/17/2017 6 PM EST 1,953.33 1,650.19 1,222
11/17/2017 7 PM EST 1,953.33 1,650.21 1,232
11/17/2017 8 PM EST 1,953.33 1,650.21 1,232
11/17/2017 9 PM EST 1,953.31 1,650.21 1,233
11/17/2017 10 PM EST 1,953.31 1,650.19 1,233
11/17/2017 11 PM EST 1,953.28 1,650.21 1,233
11/18/2017 12 AM EST 1,953.26 1,647.84 931
11/18/2017 1 AM EST 1,953.25 1,647.61 0
11/18/2017 2 AM EST 1,953.26 1,647.54 0
11/18/2017 3 AM EST 1,953.26 1,647.52 0
11/18/2017 4 AM EST 1,953.26 1,647.52 0
11/18/2017 5 AM EST 1,953.26 1,647.53 0
11/18/2017 6 AM EST 1,953.26 1,647.74 0
11/18/2017 7 AM EST 1,953.26 1,650.22 1,220
11/18/2017 8 AM EST 1,953.26 1,647.54 49
11/18/2017 9 AM EST 1,953.26 1,647.53 0
11/18/2017 10 AM EST 1,953.26 1,647.77 0
11/18/2017 11 AM EST 1,953.26 1,650.19 1,225
11/18/2017 12 PM EST 1,953.25 1,647.64 47
11/18/2017 1 PM EST 1,953.26 1,647.52 0
11/18/2017 2 PM EST 1,953.26 1,647.71 0
11/18/2017 3 PM EST 1,953.26 1,650.21 1,223
11/18/2017 4 PM EST 1,953.26 1,647.99 49
11/18/2017 5 PM EST 1,953.26 1,647.69 0
11/18/2017 6 PM EST 1,953.28 1,647.80 0
11/18/2017 7 PM EST 1,953.26 1,648.25 983
11/18/2017 8 PM EST 1,953.26 1,647.95 0
11/18/2017 9 PM EST 1,953.26 1,647.72 0
11/18/2017 10 PM EST 1,953.28 1,647.80 0
11/18/2017 11 PM EST 1,953.22 1,650.23 1,225
11/19/2017 12 AM EST 1,953.25 1,648.50 47
11/19/2017 1 AM EST 1,953.25 1,648.15 0
11/19/2017 2 AM EST 1,953.26 1,647.88 0
11/19/2017 3 AM EST 1,953.30 1,647.68 0
11/19/2017 4 AM EST 1,953.31 1,647.86 2

Elevations are in feet above sea level. Discharges are in cubic feet per second and are reported at the end of the hour.